Time;durP1;ratioP1;P1;durP2;ratioP2;P2;SDS_P1;SDS_P2;PMS_P1;PMS_P2;Temp;Humidity;BMP_temperature;BMP_pressure;BME280_temperature;BME280_humidity;BME280_pressure;Samples;Min_cycle;Max_cycle;Signal;HPM_P1;HPM_P2
2023/09/22 00:00:01;;;;;;;18.25;6.15;;;13.80;99.90;;;;;;5048310;28;20079;-83
2023/09/22 00:02:27;;;;;;;17.42;6.10;;;13.80;99.90;;;;;;5025607;28;20531;-83
2023/09/22 00:04:53;;;;;;;16.77;6.07;;;13.80;99.90;;;;;;5045561;28;20048;-82
2023/09/22 00:07:19;;;;;;;19.25;7.47;;;13.80;99.90;;;;;;5021971;28;20694;-82
2023/09/22 00:09:45;;;;;;;21.02;7.40;;;13.90;99.90;;;;;;5052937;28;20075;-82
2023/09/22 00:12:10;;;;;;;19.52;7.18;;;13.90;99.90;;;;;;5040529;28;20150;-82
2023/09/22 00:14:36;;;;;;;20.58;8.20;;;13.90;99.90;;;;;;5027207;28;20125;-82
2023/09/22 00:17:02;;;;;;;15.68;7.40;;;13.90;99.90;;;;;;5050633;28;20032;-83
2023/09/22 00:19:28;;;;;;;18.90;7.80;;;14.00;99.90;;;;;;5041836;28;20070;-82
2023/09/22 00:21:55;;;;;;;19.95;7.57;;;14.00;99.90;;;;;;5044806;28;20650;-82
2023/09/22 00:24:22;;;;;;;17.92;8.40;;;14.00;99.90;;;;;;5054762;28;20049;-82
2023/09/22 00:26:47;;;;;;;17.77;8.60;;;14.10;99.90;;;;;;5038944;28;20505;-83
2023/09/22 00:29:13;;;;;;;27.55;9.95;;;14.00;99.90;;;;;;5039421;28;20036;-83
2023/09/22 00:31:39;;;;;;;20.17;9.15;;;14.00;99.90;;;;;;5039755;28;20041;-82
2023/09/22 00:34:04;;;;;;;20.42;9.32;;;14.10;99.90;;;;;;5049896;28;20045;-83
2023/09/22 00:36:32;;;;;;;19.67;9.75;;;14.10;99.90;;;;;;5061319;28;20048;-84
2023/09/22 00:38:58;;;;;;;30.20;11.82;;;14.10;99.90;;;;;;5031775;28;20485;-84
2023/09/22 00:41:23;;;;;;;22.45;11.07;;;14.10;99.90;;;;;;5030707;28;20144;-84
2023/09/22 00:43:49;;;;;;;20.58;10.25;;;14.10;99.90;;;;;;5048009;28;20032;-83
2023/09/22 00:46:19;;;;;;;21.13;10.80;;;14.10;99.90;;;;;;5051984;28;20402;-83
2023/09/22 00:48:45;;;;;;;17.98;10.30;;;14.10;99.90;;;;;;5045624;28;20055;-83
2023/09/22 00:51:12;;;;;;;24.60;11.45;;;14.10;99.90;;;;;;5046104;28;20032;-83
2023/09/22 00:53:39;;;;;;;19.30;11.35;;;14.10;99.90;;;;;;5028508;28;20443;-82
2023/09/22 00:56:06;;;;;;;19.45;11.07;;;14.20;99.90;;;;;;5041790;28;20032;-81
2023/09/22 00:58:32;;;;;;;26.02;11.88;;;14.20;99.90;;;;;;5042803;28;20628;-82
2023/09/22 01:00:58;;;;;;;23.02;10.57;;;14.20;99.90;;;;;;5024493;28;20120;-82
2023/09/22 01:03:24;;;;;;;22.15;11.88;;;14.20;99.90;;;;;;5034398;28;20048;-82
2023/09/22 01:05:50;;;;;;;22.25;11.93;;;14.20;99.90;;;;;;5025293;28;20039;-82
2023/09/22 01:08:16;;;;;;;25.40;12.60;;;14.20;99.90;;;;;;5032850;28;20065;-82
2023/09/22 01:10:43;;;;;;;25.02;12.07;;;14.20;99.90;;;;;;5043025;28;20036;-82
2023/09/22 01:13:09;;;;;;;21.20;11.73;;;14.30;99.90;;;;;;5048657;28;20098;-82
2023/09/22 01:15:36;;;;;;;27.75;12.52;;;14.30;99.90;;;;;;5050559;28;20036;-82
2023/09/22 01:18:04;;;;;;;19.50;11.40;;;14.30;99.90;;;;;;5022975;28;20124;-82
2023/09/22 01:20:30;;;;;;;23.67;12.48;;;14.30;99.90;;;;;;5046261;28;20047;-83
2023/09/22 01:22:56;;;;;;;27.90;12.65;;;14.40;99.90;;;;;;5028464;28;20068;-83
2023/09/22 01:25:22;;;;;;;27.70;13.15;;;14.30;99.90;;;;;;5027267;28;20069;-82
2023/09/22 01:27:48;;;;;;;30.30;13.15;;;14.30;99.90;;;;;;5032193;28;20044;-83
2023/09/22 01:30:15;;;;;;;24.17;12.50;;;14.30;99.90;;;;;;5032573;28;20114;-83
2023/09/22 01:32:41;;;;;;;23.25;11.68;;;14.30;99.90;;;;;;5043925;28;20188;-83
2023/09/22 01:35:08;;;;;;;21.92;12.43;;;14.40;99.90;;;;;;5043552;28;20710;-83
2023/09/22 01:37:43;;;;;;;24.80;13.13;;;14.40;99.90;;;;;;5060306;28;20062;-82
2023/09/22 01:40:09;;;;;;;23.00;12.30;;;14.40;99.90;;;;;;5035674;28;20051;-83
2023/09/22 01:42:35;;;;;;;22.70;12.15;;;14.40;99.90;;;;;;5042882;28;20555;-82
2023/09/22 01:45:01;;;;;;;20.60;11.73;;;14.40;99.90;;;;;;5047595;28;20124;-83
2023/09/22 01:47:27;;;;;;;25.55;12.75;;;14.40;99.90;;;;;;5039253;28;20072;-82
2023/09/22 01:49:53;;;;;;;20.38;11.55;;;14.50;99.90;;;;;;5048596;28;20064;-82
2023/09/22 01:52:18;;;;;;;19.20;10.93;;;14.40;99.90;;;;;;5053793;28;20588;-82
2023/09/22 01:54:44;;;;;;;19.92;11.02;;;14.40;99.90;;;;;;5042911;28;20047;-82
2023/09/22 01:57:10;;;;;;;22.83;12.15;;;14.40;99.90;;;;;;5045718;28;20087;-82
2023/09/22 01:59:35;;;;;;;26.13;12.32;;;14.40;99.90;;;;;;5037536;28;20140;-83
2023/09/22 02:02:01;;;;;;;22.00;11.63;;;14.50;99.90;;;;;;5050499;28;20127;-82
2023/09/22 02:04:30;;;;;;;26.10;12.48;;;14.40;99.90;;;;;;5032736;28;20032;-82
2023/09/22 02:06:56;;;;;;;21.67;11.25;;;14.40;99.90;;;;;;5052574;28;20120;-82
2023/09/22 02:09:22;;;;;;;20.75;11.35;;;14.40;99.90;;;;;;5064021;28;20120;-82
2023/09/22 02:11:47;;;;;;;20.15;10.98;;;14.40;99.90;;;;;;5039658;28;20037;-83
2023/09/22 02:14:13;;;;;;;25.20;11.98;;;14.40;99.90;;;;;;5032397;28;20115;-82
2023/09/22 02:16:40;;;;;;;22.80;12.55;;;14.30;99.90;;;;;;5030338;28;20453;-82
2023/09/22 02:19:06;;;;;;;22.00;11.93;;;14.20;99.90;;;;;;5055957;28;20079;-82
2023/09/22 02:21:31;;;;;;;22.00;11.05;;;14.10;99.90;;;;;;5026610;28;20463;-83
2023/09/22 02:23:57;;;;;;;19.42;11.00;;;13.90;99.90;;;;;;5028244;28;20041;-83
2023/09/22 02:26:23;;;;;;;20.05;11.35;;;13.80;99.90;;;;;;5049012;28;20101;-82
2023/09/22 02:28:51;;;;;;;20.55;11.23;;;13.70;99.90;;;;;;5045456;28;20053;-82
2023/09/22 02:31:17;;;;;;;21.38;11.73;;;13.60;99.90;;;;;;5028408;28;20380;-82
2023/09/22 02:33:43;;;;;;;21.45;11.85;;;13.60;99.90;;;;;;5045721;28;20040;-82
2023/09/22 02:36:08;;;;;;;21.80;11.82;;;13.60;99.90;;;;;;5052190;28;20044;-82
2023/09/22 02:38:34;;;;;;;20.55;11.63;;;13.50;99.90;;;;;;5047527;28;20501;-82
2023/09/22 02:41:00;;;;;;;20.65;10.60;;;13.50;99.90;;;;;;5032750;28;20470;-82
2023/09/22 02:43:26;;;;;;;21.92;12.35;;;13.50;99.90;;;;;;5049530;28;20675;-82
2023/09/22 02:45:52;;;;;;;23.13;11.68;;;13.50;99.90;;;;;;5027116;28;20048;-82
2023/09/22 02:48:17;;;;;;;22.30;11.57;;;13.50;99.90;;;;;;5032193;28;20101;-82
2023/09/22 02:50:45;;;;;;;25.67;12.65;;;13.60;99.90;;;;;;5053221;28;20040;-82
2023/09/22 02:53:10;;;;;;;22.08;11.80;;;13.60;99.90;;;;;;5030587;28;20479;-82
2023/09/22 02:55:39;;;;;;;21.95;11.38;;;13.70;99.90;;;;;;5044907;28;20044;-82
2023/09/22 02:58:05;;;;;;;21.35;11.30;;;13.70;99.90;;;;;;5056396;28;20060;-82
2023/09/22 03:00:31;;;;;;;19.80;11.10;;;13.70;99.90;;;;;;5055357;28;20068;-82
2023/09/22 03:02:56;;;;;;;23.35;11.60;;;13.70;99.90;;;;;;5030122;28;20071;-82
2023/09/22 03:05:22;;;;;;;22.02;10.40;;;13.70;99.90;;;;;;5031134;28;20059;-81
2023/09/22 03:07:50;;;;;;;20.02;10.57;;;13.70;99.90;;;;;;5054091;28;20039;-82
2023/09/22 03:10:15;;;;;;;19.77;10.52;;;13.70;99.90;;;;;;5050044;28;20780;-82
2023/09/22 03:12:42;;;;;;;21.05;10.82;;;13.70;99.90;;;;;;5048798;28;20032;-81
2023/09/22 03:15:12;;;;;;;23.10;12.00;;;13.70;99.90;;;;;;5040999;28;20070;-82
2023/09/22 03:17:39;;;;;;;22.48;11.63;;;13.70;99.90;;;;;;5034769;28;20499;-82
2023/09/22 03:20:12;;;;;;;23.23;11.52;;;13.80;99.90;;;;;;5033446;28;20037;-81
2023/09/22 03:22:38;;;;;;;23.85;10.90;;;13.70;99.90;;;;;;5049727;28;20074;-81
2023/09/22 03:25:10;;;;;;;24.50;10.57;;;13.70;99.90;;;;;;5032747;28;20052;-82
2023/09/22 03:27:37;;;;;;;22.90;11.70;;;13.80;99.90;;;;;;5049448;28;20116;-82
2023/09/22 03:30:05;;;;;;;23.58;11.18;;;13.80;99.90;;;;;;5034115;28;20520;-82
2023/09/22 03:32:31;;;;;;;25.17;11.95;;;13.80;99.90;;;;;;5033132;28;20131;-81
2023/09/22 03:34:57;;;;;;;22.73;10.88;;;13.80;99.90;;;;;;5047861;28;20047;-82
2023/09/22 03:37:27;;;;;;;24.42;12.48;;;13.80;99.90;;;;;;5039161;28;20307;-82
2023/09/22 03:39:54;;;;;;;25.95;12.27;;;13.80;99.90;;;;;;5033593;28;20072;-82
2023/09/22 03:42:20;;;;;;;23.25;11.25;;;13.80;99.90;;;;;;5029239;28;20510;-81
2023/09/22 03:44:45;;;;;;;28.35;11.50;;;13.70;99.90;;;;;;5004841;28;20124;-81
2023/09/22 03:47:11;;;;;;;23.33;11.60;;;13.70;99.90;;;;;;5033793;28;20072;-82
2023/09/22 03:49:37;;;;;;;24.38;11.88;;;13.70;99.90;;;;;;5028100;28;20212;-82
2023/09/22 03:52:04;;;;;;;23.13;11.23;;;13.70;99.90;;;;;;5021667;28;20052;-84
2023/09/22 03:54:29;;;;;;;23.02;11.90;;;13.70;99.90;;;;;;5025740;28;20064;-82
2023/09/22 03:56:56;;;;;;;23.63;11.02;;;13.70;99.90;;;;;;5024850;28;20479;-82
2023/09/22 03:59:22;;;;;;;32.00;12.02;;;13.70;99.90;;;;;;5029370;28;20458;-82
2023/09/22 04:01:47;;;;;;;23.35;10.85;;;13.70;99.90;;;;;;5021357;28;20045;-82
2023/09/22 04:04:14;;;;;;;21.88;12.00;;;13.70;99.90;;;;;;5037410;28;20052;-82
2023/09/22 04:06:39;;;;;;;24.17;11.15;;;13.60;99.90;;;;;;5038251;28;20044;-82
2023/09/22 04:09:07;;;;;;;20.63;11.40;;;13.70;99.90;;;;;;5029682;28;20087;-81
2023/09/22 04:11:34;;;;;;;20.38;10.95;;;13.60;99.90;;;;;;5027981;28;20102;-82
2023/09/22 04:13:59;;;;;;;18.95;10.35;;;13.60;99.90;;;;;;5034377;28;20403;-81
2023/09/22 04:16:25;;;;;;;23.50;10.07;;;13.60;99.90;;;;;;5029771;28;20051;-82
2023/09/22 04:18:54;;;;;;;21.95;11.45;;;13.60;99.90;;;;;;5029363;28;20376;-82
2023/09/22 04:21:22;;;;;;;25.02;10.85;;;13.60;99.90;;;;;;5026606;28;20052;-81
2023/09/22 04:23:57;;;;;;;24.17;11.15;;;13.60;99.90;;;;;;5025824;28;20087;-82
2023/09/22 04:26:27;;;;;;;23.77;11.90;;;13.50;99.90;;;;;;5034065;28;20048;-82
2023/09/22 04:28:54;;;;;;;21.92;10.98;;;13.50;99.90;;;;;;5036833;28;20044;-82
2023/09/22 04:31:24;;;;;;;27.30;12.07;;;13.50;99.90;;;;;;5027464;28;20049;-82
2023/09/22 04:33:51;;;;;;;25.23;11.82;;;13.50;99.90;;;;;;5019562;28;20455;-81
2023/09/22 04:36:18;;;;;;;27.33;12.25;;;13.50;99.90;;;;;;5010096;28;20847;-82
2023/09/22 04:38:44;;;;;;;29.15;12.00;;;13.40;99.90;;;;;;5028289;28;20087;-82
2023/09/22 04:41:10;;;;;;;25.75;12.40;;;13.50;99.90;;;;;;5027258;28;20063;-82
2023/09/22 04:43:36;;;;;;;25.77;12.70;;;13.40;99.90;;;;;;5003821;28;20426;-82
2023/09/22 04:46:02;;;;;;;27.90;12.50;;;13.30;99.90;;;;;;5022813;28;20037;-83
2023/09/22 04:48:28;;;;;;;26.65;12.38;;;13.30;99.90;;;;;;5036530;28;20383;-80
2023/09/22 04:50:56;;;;;;;23.55;12.20;;;13.30;99.90;;;;;;5021335;28;20044;-80
2023/09/22 04:53:22;;;;;;;21.90;11.63;;;13.20;99.90;;;;;;5024591;28;20060;-79
2023/09/22 04:55:48;;;;;;;22.55;12.48;;;13.20;99.90;;;;;;5010568;28;20731;-80
2023/09/22 04:58:15;;;;;;;26.90;13.27;;;13.10;99.90;;;;;;5027881;28;20110;-79
2023/09/22 05:00:41;;;;;;;25.33;12.43;;;13.10;99.90;;;;;;5013263;28;20041;-80
2023/09/22 05:03:07;;;;;;;26.85;12.88;;;13.00;99.90;;;;;;5012020;28;20118;-79
2023/09/22 05:05:33;;;;;;;29.17;13.70;;;12.90;99.90;;;;;;5011906;28;20053;-80
2023/09/22 05:07:59;;;;;;;25.05;12.43;;;12.70;99.90;;;;;;5017164;28;20112;-80
2023/09/22 05:10:25;;;;;;;28.83;13.23;;;12.70;99.90;;;;;;5026158;28;20124;-79
2023/09/22 05:12:52;;;;;;;27.20;13.05;;;12.60;99.90;;;;;;5011957;28;20068;-79
2023/09/22 05:15:18;;;;;;;26.30;12.02;;;12.60;99.90;;;;;;5000618;28;20522;-80
2023/09/22 05:17:44;;;;;;;26.08;12.68;;;12.50;99.90;;;;;;5029429;28;20404;-81
2023/09/22 05:20:13;;;;;;;29.70;13.30;;;12.50;99.90;;;;;;5023671;28;20049;-81
2023/09/22 05:22:39;;;;;;;30.17;14.15;;;12.40;99.90;;;;;;5009794;28;20059;-80
2023/09/22 05:25:06;;;;;;;32.08;14.13;;;12.40;99.90;;;;;;5006622;28;20132;-80
2023/09/22 05:27:32;;;;;;;34.97;13.88;;;12.40;99.90;;;;;;5045864;28;20047;-79
2023/09/22 05:29:57;;;;;;;35.47;14.95;;;12.50;99.90;;;;;;5027857;28;20037;-80
2023/09/22 05:32:23;;;;;;;36.65;14.75;;;12.50;99.90;;;;;;5027587;28;20045;-80
2023/09/22 05:34:51;;;;;;;43.47;16.85;;;12.50;99.90;;;;;;5023566;28;20045;-80
2023/09/22 05:37:19;;;;;;;41.85;17.13;;;12.50;99.90;;;;;;5015973;28;20041;-80
2023/09/22 05:39:44;;;;;;;41.65;16.92;;;12.50;99.90;;;;;;5019072;28;20069;-80
2023/09/22 05:42:11;;;;;;;43.45;16.42;;;12.50;99.90;;;;;;5025140;28;20099;-80
2023/09/22 05:44:37;;;;;;;42.55;17.83;;;12.60;99.90;;;;;;5023535;28;20510;-81
2023/09/22 05:47:04;;;;;;;42.05;15.82;;;12.60;99.90;;;;;;5037304;28;20464;-80
2023/09/22 05:49:30;;;;;;;40.83;16.00;;;12.60;99.90;;;;;;5046118;28;20037;-80
2023/09/22 05:51:55;;;;;;;43.60;16.55;;;12.60;99.90;;;;;;5035367;28;20033;-80
2023/09/22 05:54:21;;;;;;;42.83;17.73;;;12.60;99.90;;;;;;5032269;28;20040;-80
2023/09/22 05:56:47;;;;;;;38.85;16.73;;;12.70;99.90;;;;;;5049613;28;20036;-81
2023/09/22 05:59:13;;;;;;;34.58;15.18;;;12.70;99.90;;;;;;5051804;28;20047;-79
2023/09/22 06:01:39;;;;;;;37.40;16.50;;;12.70;99.90;;;;;;5027208;28;20559;-80
2023/09/22 06:04:05;;;;;;;31.55;15.02;;;12.70;99.90;;;;;;5043998;28;20450;-79
2023/09/22 06:06:32;;;;;;;36.88;16.25;;;12.70;99.90;;;;;;5047419;28;20586;-79
2023/09/22 06:08:58;;;;;;;34.90;15.23;;;12.80;99.90;;;;;;5048892;28;20083;-79
2023/09/22 06:11:25;;;;;;;32.42;14.35;;;12.80;99.90;;;;;;5043610;28;20066;-80
2023/09/22 06:13:51;;;;;;;32.95;15.27;;;12.80;99.90;;;;;;5034568;28;20083;-79
2023/09/22 06:16:17;;;;;;;34.42;14.93;;;12.80;99.90;;;;;;5032804;28;20072;-79
2023/09/22 06:18:43;;;;;;;33.80;14.82;;;12.90;99.90;;;;;;5032079;28;20060;-79
2023/09/22 06:21:10;;;;;;;32.67;14.20;;;12.80;99.90;;;;;;5045483;28;20402;-80
2023/09/22 06:23:36;;;;;;;29.98;13.93;;;12.90;99.90;;;;;;5044643;28;20093;-79
2023/09/22 06:26:05;;;;;;;29.52;13.85;;;12.90;99.90;;;;;;5031369;28;20037;-79
2023/09/22 06:28:31;;;;;;;27.40;13.10;;;12.90;99.90;;;;;;5043372;28;20047;-79
2023/09/22 06:31:01;;;;;;;31.85;13.70;;;13.00;99.90;;;;;;5037444;28;20052;-79
2023/09/22 06:33:27;;;;;;;26.65;13.23;;;13.10;99.90;;;;;;5032432;28;20498;-79
2023/09/22 06:35:57;;;;;;;26.23;11.82;;;13.10;99.90;;;;;;5047832;28;20068;-79
2023/09/22 06:38:23;;;;;;;27.00;12.30;;;13.20;99.90;;;;;;5031222;28;20395;-79
2023/09/22 06:40:50;;;;;;;22.50;11.25;;;13.20;99.90;;;;;;5047112;28;20052;-80
2023/09/22 06:43:16;;;;;;;27.65;11.60;;;13.20;99.90;;;;;;5032816;28;20044;-79
2023/09/22 06:45:42;;;;;;;25.17;11.60;;;13.20;99.90;;;;;;5045970;28;20033;-80
2023/09/22 06:48:09;;;;;;;22.42;11.18;;;13.20;99.90;;;;;;5042632;28;20145;-79
2023/09/22 06:50:35;;;;;;;24.63;11.57;;;13.30;99.90;;;;;;5039076;28;20063;-79
2023/09/22 06:53:02;;;;;;;25.50;11.38;;;13.30;99.90;;;;;;5042792;28;20037;-79
2023/09/22 06:55:30;;;;;;;22.67;11.45;;;13.40;99.90;;;;;;5040772;28;21743;-80
2023/09/22 06:57:59;;;;;;;24.90;11.40;;;13.40;99.90;;;;;;5051378;28;20059;-79
2023/09/22 07:00:28;;;;;;;26.13;12.18;;;13.40;99.90;;;;;;5040483;28;20349;-79
2023/09/22 07:02:55;;;;;;;21.50;10.43;;;13.40;99.90;;;;;;5041492;28;20047;-80
2023/09/22 07:05:20;;;;;;;21.52;10.38;;;13.50;99.90;;;;;;5015284;28;20128;-79
2023/09/22 07:07:47;;;;;;;22.90;10.90;;;13.50;99.90;;;;;;5051152;28;20123;-79
2023/09/22 07:10:13;;;;;;;19.38;10.25;;;13.60;99.90;;;;;;5039851;28;20044;-79
2023/09/22 07:12:39;;;;;;;19.08;10.18;;;13.70;99.90;;;;;;5039740;28;20037;-80
2023/09/22 07:15:06;;;;;;;19.60;9.52;;;13.70;99.90;;;;;;5037889;28;20076;-80
2023/09/22 07:17:32;;;;;;;18.13;9.77;;;13.70;99.90;;;;;;5047524;28;20044;-79
2023/09/22 07:19:58;;;;;;;18.65;10.27;;;13.70;99.90;;;;;;5047921;28;20055;-79
2023/09/22 07:22:24;;;;;;;20.05;9.32;;;13.70;99.90;;;;;;5066292;28;20047;-79
2023/09/22 07:24:53;;;;;;;18.77;9.20;;;13.70;99.90;;;;;;5026655;28;20044;-79
2023/09/22 07:27:19;;;;;;;20.33;9.73;;;13.70;99.90;;;;;;5032417;28;20128;-79
2023/09/22 07:29:44;;;;;;;20.75;9.65;;;13.70;99.90;;;;;;5041968;28;20119;-79
2023/09/22 07:32:10;;;;;;;20.05;9.85;;;13.70;99.90;;;;;;5042810;28;20041;-80
2023/09/22 07:34:36;;;;;;;18.05;9.52;;;13.70;99.90;;;;;;5034173;28;20037;-80
2023/09/22 07:37:01;;;;;;;19.15;9.55;;;13.70;99.90;;;;;;5047826;28;20032;-79
2023/09/22 07:39:27;;;;;;;16.58;8.20;;;13.70;99.90;;;;;;5046043;28;20658;-79
2023/09/22 07:41:53;;;;;;;19.27;10.18;;;13.80;99.90;;;;;;5050066;28;20187;-79
2023/09/22 07:44:21;;;;;;;16.33;9.13;;;13.80;99.90;;;;;;5041178;28;20049;-80
2023/09/22 07:46:50;;;;;;;17.45;9.48;;;13.80;99.90;;;;;;5049786;28;20535;-80
2023/09/22 07:49:16;;;;;;;15.63;8.90;;;13.80;99.90;;;;;;5038900;28;20035;-80
2023/09/22 07:51:42;;;;;;;16.17;8.13;;;13.80;99.90;;;;;;5050219;28;20422;-79
2023/09/22 07:54:09;;;;;;;17.42;8.32;;;13.90;99.90;;;;;;5053961;28;20615;-78
2023/09/22 07:56:35;;;;;;;14.57;8.65;;;13.90;99.90;;;;;;5055301;28;20110;-79
2023/09/22 07:59:03;;;;;;;16.20;7.82;;;14.00;99.90;;;;;;5044623;28;20044;-79
2023/09/22 08:01:29;;;;;;;12.70;7.45;;;14.00;99.90;;;;;;5042022;28;20045;-79
2023/09/22 08:03:55;;;;;;;13.90;6.97;;;13.90;99.90;;;;;;5040217;28;20725;-79
2023/09/22 08:06:20;;;;;;;10.85;7.10;;;13.90;99.90;;;;;;5031168;28;20040;-79
2023/09/22 08:08:49;;;;;;;13.73;7.25;;;13.80;99.90;;;;;;5028033;28;20101;-79
2023/09/22 08:11:18;;;;;;;11.15;6.75;;;14.00;99.90;;;;;;5030507;28;20044;-80
2023/09/22 08:13:47;;;;;;;12.25;6.32;;;14.00;99.90;;;;;;5048622;28;20052;-79
2023/09/22 08:16:13;;;;;;;11.00;5.80;;;14.10;99.90;;;;;;5033806;28;20044;-79
2023/09/22 08:18:40;;;;;;;9.68;6.00;;;14.20;99.90;;;;;;5037020;28;20125;-80
2023/09/22 08:21:07;;;;;;;9.95;5.97;;;14.20;99.90;;;;;;5045639;28;20195;-80
2023/09/22 08:23:33;;;;;;;11.30;6.32;;;14.10;99.90;;;;;;5043382;28;20071;-80
2023/09/22 08:26:01;;;;;;;10.63;6.00;;;14.10;99.90;;;;;;5032029;28;20040;-80
2023/09/22 08:28:28;;;;;;;11.98;6.57;;;14.10;99.90;;;;;;5047808;28;20040;-80
2023/09/22 08:30:56;;;;;;;9.77;5.53;;;14.10;99.90;;;;;;5047318;28;20391;-80
2023/09/22 08:33:22;;;;;;;9.68;6.30;;;14.20;99.90;;;;;;5039307;28;20044;-79
2023/09/22 08:35:49;;;;;;;9.70;5.93;;;14.30;99.90;;;;;;5041058;28;20036;-79
2023/09/22 08:38:15;;;;;;;9.23;5.22;;;14.30;99.90;;;;;;5041703;28;20045;-79
2023/09/22 08:40:44;;;;;;;10.30;5.28;;;14.50;99.90;;;;;;5047341;28;20050;-80
2023/09/22 08:43:10;;;;;;;6.97;4.65;;;14.50;99.90;;;;;;5020868;28;20053;-80
2023/09/22 08:45:36;;;;;;;8.35;4.28;;;14.60;99.90;;;;;;5017598;28;20047;-80
2023/09/22 08:48:01;;;;;;;9.07;4.22;;;14.60;99.90;;;;;;5044356;28;20029;-80
2023/09/22 08:50:27;;;;;;;8.00;4.55;;;14.90;99.90;;;;;;5047510;28;20093;-80
2023/09/22 08:53:14;;;;;;;6.60;4.10;;;15.20;99.90;;;;;;5049505;28;20038;-80
2023/09/22 08:55:39;;;;;;;6.22;3.83;;;15.40;99.90;;;;;;5046330;28;20052;-80
2023/09/22 08:58:04;;;;;;;8.02;4.03;;;15.50;99.90;;;;;;5041058;28;20159;-79
2023/09/22 09:00:30;;;;;;;7.07;3.25;;;15.50;99.90;;;;;;5043330;28;20086;-79
2023/09/22 09:02:58;;;;;;;6.18;3.47;;;15.60;99.90;;;;;;5025503;28;20671;-79
2023/09/22 09:05:31;;;;;;;5.60;3.28;;;15.60;99.90;;;;;;5031821;28;20032;-79
2023/09/22 09:08:17;;;;;;;6.30;3.45;;;15.80;99.90;;;;;;5048409;28;20044;-80
2023/09/22 09:10:49;;;;;;;5.50;2.63;;;15.80;99.90;;;;;;5021455;28;20505;-80
2023/09/22 09:13:29;;;;;;;4.32;2.55;;;15.80;99.90;;;;;;5032675;28;20055;-80
2023/09/22 09:15:55;;;;;;;4.90;2.25;;;15.80;99.90;;;;;;5045348;28;20106;-80
2023/09/22 09:18:24;;;;;;;3.22;2.22;;;15.80;99.90;;;;;;5025497;28;20045;-79
2023/09/22 09:21:09;;;;;;;5.75;2.75;;;15.60;99.90;;;;;;5039419;28;20040;-80
2023/09/22 09:23:36;;;;;;;4.22;2.63;;;15.30;99.90;;;;;;5048097;28;20041;-80
2023/09/22 09:26:02;;;;;;;5.70;2.40;;;15.10;99.90;;;;;;5048111;28;20093;-79
2023/09/22 09:28:29;;;;;;;4.93;2.53;;;15.00;99.90;;;;;;5060631;28;20094;-79
2023/09/22 09:30:54;;;;;;;5.75;2.03;;;15.00;99.90;;;;;;5031246;28;20064;-79
2023/09/22 09:33:22;;;;;;;1.88;1.60;;;15.00;99.90;;;;;;5038324;28;20080;-80
2023/09/22 09:35:49;;;;;;;3.35;1.73;;;15.00;99.90;;;;;;5036380;28;20564;-81
2023/09/22 09:38:15;;;;;;;1.70;1.50;;;15.10;99.90;;;;;;5043241;28;20036;-81
2023/09/22 09:40:41;;;;;;;1.70;1.52;;;15.30;99.90;;;;;;5032300;28;20106;-81
2023/09/22 09:43:12;;;;;;;2.42;1.58;;;15.50;99.90;;;;;;5055287;28;20040;-81
2023/09/22 09:45:56;;;;;;;2.13;1.60;;;15.60;99.90;;;;;;5031656;28;20048;-81
2023/09/22 09:48:24;;;;;;;1.63;1.33;;;15.70;99.90;;;;;;5027448;28;20037;-81
2023/09/22 09:50:51;;;;;;;2.05;1.30;;;15.90;99.90;;;;;;5044780;28;20044;-80
2023/09/22 09:53:36;;;;;;;2.85;1.30;;;16.00;99.90;;;;;;5048717;28;20101;-80
2023/09/22 09:56:03;;;;;;;1.70;1.27;;;16.40;99.90;;;;;;5031395;28;20080;-80
2023/09/22 09:58:34;;;;;;;2.80;1.20;;;16.80;99.90;;;;;;5025298;28;20064;-80
2023/09/22 10:01:05;;;;;;;2.65;1.45;;;17.40;99.90;;;;;;5047435;28;20573;-81
2023/09/22 10:03:36;;;;;;;3.88;1.55;;;17.80;99.90;;;;;;5035925;28;20368;-81
2023/09/22 10:06:04;;;;;;;1.27;1.17;;;17.90;99.90;;;;;;5048119;28;20044;-81
2023/09/22 10:08:30;;;;;;;1.40;1.02;;;18.40;99.90;;;;;;5055648;28;20036;-80
2023/09/22 10:11:03;;;;;;;1.48;0.90;;;19.10;99.90;;;;;;5044185;28;20394;-81
2023/09/22 10:13:29;;;;;;;3.42;1.13;;;20.00;99.90;;;;;;5023187;28;20067;-81
2023/09/22 10:15:58;;;;;;;1.35;0.70;;;21.00;99.90;;;;;;5042405;28;20498;-81
2023/09/22 10:18:46;;;;;;;2.70;0.80;;;21.90;26.00;;;;;;5044694;28;20097;-80
2023/09/22 10:21:36;;;;;;;1.10;0.80;;;22.30;73.80;;;;;;5028866;28;20494;-81
2023/09/22 10:24:23;;;;;;;1.27;0.60;;;21.50;99.90;;;;;;5048293;28;20462;-81
2023/09/22 10:27:03;;;;;;;1.33;0.80;;;20.60;1.00;;;;;;5041786;28;20139;-80
2023/09/22 10:29:35;;;;;;;1.38;0.80;;;20.70;99.90;;;;;;5052177;28;20068;-82
2023/09/22 10:32:19;;;;;;;1.02;0.70;;;20.10;99.90;;;;;;5055881;28;20043;-81
2023/09/22 10:34:49;;;;;;;3.00;0.70;;;19.20;1.00;;;;;;5050488;28;20044;-81
2023/09/22 10:37:16;;;;;;;1.30;0.60;;;18.30;99.90;;;;;;5061239;28;20048;-80
2023/09/22 10:39:52;;;;;;;0.82;0.50;;;17.60;99.90;;;;;;5069136;28;20119;-81
2023/09/22 10:42:18;;;;;;;;;;;16.90;99.90;;;;;;5046121;28;20067;-80
2023/09/22 10:44:56;;;;;;;1.55;0.75;;;16.40;99.90;;;;;;5037164;28;19928;-80
2023/09/22 10:47:23;;;;;;;0.90;0.80;;;16.30;99.90;;;;;;5045963;28;20125;-80
2023/09/22 10:49:49;;;;;;;1.15;0.60;;;16.10;99.90;;;;;;5018312;28;20040;-80
2023/09/22 10:52:17;;;;;;;2.88;0.70;;;16.00;1.00;;;;;;5044797;28;20037;-81
2023/09/22 10:54:43;;;;;;;1.63;1.13;;;15.90;1.00;;;;;;5030074;28;20052;-80
2023/09/22 10:57:21;;;;;;;3.60;0.82;;;15.80;1.00;;;;;;5050470;28;20123;-81
2023/09/22 10:59:47;;;;;;;1.73;0.95;;;15.80;1.00;;;;;;5048470;28;20559;-80
2023/09/22 11:02:23;;;;;;;2.28;0.60;;;15.90;1.00;;;;;;5052397;28;20052;-81
2023/09/22 11:04:49;;;;;;;;;;;15.80;99.90;;;;;;5050298;28;20139;-80
2023/09/22 11:07:32;;;;;;;2.73;0.90;;;15.80;1.00;;;;;;5046994;28;20002;-80
2023/09/22 11:09:59;;;;;;;1.33;0.80;;;17.00;1.00;;;;;;5051708;28;20060;-80
2023/09/22 11:12:29;;;;;;;2.05;0.88;;;18.00;1.00;;;;;;5049730;28;20475;-80
2023/09/22 11:14:55;;;;;;;3.65;1.00;;;19.50;1.00;;;;;;5046614;28;20046;-80
2023/09/22 11:17:21;;;;;;;0.88;0.60;;;20.70;99.90;;;;;;5032939;28;20075;-81
2023/09/22 11:19:54;;;;;;;1.27;0.90;;;22.00;1.00;;;;;;5035576;28;20605;-81
2023/09/22 11:22:20;;;;;;;2.20;0.80;;;22.70;99.90;;;;;;5048928;28;20055;-81
2023/09/22 11:24:47;;;;;;;1.25;0.70;;;23.20;99.90;;;;;;5043591;28;20063;-81
2023/09/22 11:27:12;;;;;;;1.10;0.85;;;23.90;99.90;;;;;;5050951;28;20127;-80
2023/09/22 11:29:41;;;;;;;1.30;0.80;;;24.40;99.90;;;;;;5053363;28;20075;-81
2023/09/22 11:32:06;;;;;;;2.75;0.98;;;24.20;99.90;;;;;;5045897;28;20039;-80
2023/09/22 11:34:43;;;;;;;3.20;1.23;;;23.40;99.90;;;;;;5060081;28;20116;-81
2023/09/22 11:37:09;;;;;;;1.35;0.90;;;23.10;1.00;;;;;;5053392;28;20120;-81
2023/09/22 11:39:34;;;;;;;1.80;0.70;;;22.80;1.00;;;;;;5050870;28;20119;-81
2023/09/22 11:42:01;;;;;;;0.90;0.60;;;22.50;1.00;;;;;;5051514;28;20131;-81
2023/09/22 11:44:27;;;;;;;1.98;1.13;;;22.10;1.00;;;;;;5035490;28;20120;-81
2023/09/22 11:46:53;;;;;;;1.08;0.77;;;22.80;1.00;;;;;;5043887;28;20790;-81
2023/09/22 11:49:20;;;;;;;0.98;0.80;;;23.20;1.00;;;;;;5051730;28;20429;-81
2023/09/22 11:51:45;;;;;;;1.50;0.90;;;22.60;1.00;;;;;;5045518;28;20041;-81
2023/09/22 11:54:13;;;;;;;1.20;1.10;;;21.70;1.00;;;;;;5041458;28;20044;-82
2023/09/22 11:56:40;;;;;;;1.20;0.80;;;20.90;1.00;;;;;;5045448;28;20525;-81
2023/09/22 11:59:14;;;;;;;1.20;0.77;;;20.00;1.00;;;;;;5044916;28;20057;-81
2023/09/22 12:01:40;;;;;;;1.00;0.90;;;19.50;41.20;;;;;;5043251;28;20127;-84
2023/09/22 12:04:06;;;;;;;2.40;1.02;;;19.50;99.90;;;;;;5062426;28;20049;-81
2023/09/22 12:06:33;;;;;;;2.15;1.38;;;19.80;99.90;;;;;;5047157;28;20040;-83
2023/09/22 12:08:59;;;;;;;4.05;0.80;;;20.60;99.90;;;;;;5032473;28;20047;-83
2023/09/22 12:11:25;;;;;;;2.45;1.05;;;21.70;94.90;;;;;;5034414;28;20037;-85
2023/09/22 12:13:51;;;;;;;1.63;0.80;;;21.70;16.50;;;;;;5032404;28;20127;-81
2023/09/22 12:16:16;;;;;;;0.88;0.80;;;21.20;1.00;;;;;;5026273;28;20127;-80
2023/09/22 12:18:42;;;;;;;1.25;1.10;;;20.70;13.60;;;;;;5043412;28;20159;-80
2023/09/22 12:21:08;;;;;;;1.50;1.40;;;20.40;1.00;;;;;;5049619;28;20123;-81
2023/09/22 12:23:34;;;;;;;2.67;1.00;;;20.00;20.80;;;;;;5028996;28;20075;-83
2023/09/22 12:26:00;;;;;;;4.82;1.58;;;20.20;80.00;;;;;;5050910;28;20054;-81
2023/09/22 12:28:26;;;;;;;3.00;1.20;;;20.20;99.90;;;;;;5028298;28;20040;-81
2023/09/22 12:30:52;;;;;;;1.77;1.08;;;20.00;41.20;;;;;;5020241;28;20041;-81
2023/09/22 12:33:18;;;;;;;1.90;0.85;;;19.80;97.00;;;;;;5044584;28;20828;-82
2023/09/22 12:35:44;;;;;;;1.52;1.13;;;19.60;99.90;;;;;;5041143;28;20045;-83